Terminal Aerodrome Forecast
Issued by NWS

Home | Current Version | Previous Version | Text Only | Print | Product List | Glossary On
Versions: 1 2 3 4 5 6 7 8 9 10 11 12 13 14 15 16 17
792
FTUS43 KDLH 060101 AAA
TAFBRD
TAF AMD
KBRD 060101Z 0601/0624 20007KT P6SM SKC WS015/24035KT
     FM061600 24012G20KT P6SM BKN250
     FM062000 27015G25KT P6SM VCTS SCT100CB BKN250
     FM062200 31016G26KT P6SM VCTS SCT100CB BKN250=

USA.gov is the U.S. government's official web portal to all federal, state and local government web resources and services.